sensor_id;sensor_type;location;lat;lon;timestamp;pressure;altitude;pressure_sealevel;temperature;humidity
80405;BME280;69733;48.744;9.176;2023-07-30T00:01:29;96380.03;;;17.83;81.37
80405;BME280;69733;48.744;9.176;2023-07-30T00:03:54;96385.16;;;17.79;81.70
80405;BME280;69733;48.744;9.176;2023-07-30T00:06:19;96388.44;;;17.76;81.41
80405;BME280;69733;48.744;9.176;2023-07-30T00:08:45;96390.63;;;17.74;81.83
80405;BME280;69733;48.744;9.176;2023-07-30T00:11:10;96379.09;;;17.69;81.70
80405;BME280;69733;48.744;9.176;2023-07-30T00:13:36;96379.38;;;17.67;81.63
80405;BME280;69733;48.744;9.176;2023-07-30T00:16:01;96375.88;;;17.67;81.89
80405;BME280;69733;48.744;9.176;2023-07-30T00:18:26;96377.53;;;17.63;81.78
80405;BME280;69733;48.744;9.176;2023-07-30T00:20:52;96385.88;;;17.61;81.86
80405;BME280;69733;48.744;9.176;2023-07-30T00:23:17;96387.75;;;17.61;82.03
80405;BME280;69733;48.744;9.176;2023-07-30T00:25:42;96379.69;;;17.61;81.91
80405;BME280;69733;48.744;9.176;2023-07-30T00:28:07;96377.00;;;17.61;82.04
80405;BME280;69733;48.744;9.176;2023-07-30T00:30:33;96388.56;;;17.61;81.80
80405;BME280;69733;48.744;9.176;2023-07-30T00:32:58;96387.25;;;17.59;82.10
80405;BME280;69733;48.744;9.176;2023-07-30T00:35:23;96402.09;;;17.56;82.21
80405;BME280;69733;48.744;9.176;2023-07-30T00:37:49;96396.94;;;17.55;82.36
80405;BME280;69733;48.744;9.176;2023-07-30T00:40:14;96400.69;;;17.54;82.53
80405;BME280;69733;48.744;9.176;2023-07-30T00:42:39;96409.88;;;17.53;82.44
80405;BME280;69733;48.744;9.176;2023-07-30T00:45:05;96407.22;;;17.48;82.60
80405;BME280;69733;48.744;9.176;2023-07-30T00:47:31;96410.47;;;17.45;82.71
80405;BME280;69733;48.744;9.176;2023-07-30T00:49:56;96417.25;;;17.37;82.69
80405;BME280;69733;48.744;9.176;2023-07-30T00:52:22;96408.44;;;17.31;82.84
80405;BME280;69733;48.744;9.176;2023-07-30T00:54:48;96408.47;;;17.26;83.18
80405;BME280;69733;48.744;9.176;2023-07-30T00:57:15;96410.09;;;17.22;83.14
80405;BME280;69733;48.744;9.176;2023-07-30T00:59:42;96405.00;;;17.21;83.04
80405;BME280;69733;48.744;9.176;2023-07-30T01:02:08;96397.75;;;17.21;83.43
80405;BME280;69733;48.744;9.176;2023-07-30T01:04:33;96413.09;;;17.21;83.11
80405;BME280;69733;48.744;9.176;2023-07-30T01:06:59;96413.09;;;17.21;83.28
80405;BME280;69733;48.744;9.176;2023-07-30T01:09:24;96418.47;;;17.21;83.41
80405;BME280;69733;48.744;9.176;2023-07-30T01:11:51;96431.59;;;17.22;83.29
80405;BME280;69733;48.744;9.176;2023-07-30T01:14:20;96409.53;;;17.25;83.12
80405;BME280;69733;48.744;9.176;2023-07-30T01:16:45;96412.47;;;17.29;82.97
80405;BME280;69733;48.744;9.176;2023-07-30T01:19:11;96405.75;;;17.31;82.91
80405;BME280;69733;48.744;9.176;2023-07-30T01:21:37;96415.94;;;17.34;82.98
80405;BME280;69733;48.744;9.176;2023-07-30T01:24:03;96417.81;;;17.34;83.15
80405;BME280;69733;48.744;9.176;2023-07-30T01:26:34;96409.47;;;17.35;83.34
80405;BME280;69733;48.744;9.176;2023-07-30T01:29:07;96422.94;;;17.35;83.45
80405;BME280;69733;48.744;9.176;2023-07-30T01:31:34;96421.31;;;17.34;83.33
80405;BME280;69733;48.744;9.176;2023-07-30T01:34:02;96422.38;;;17.33;83.39
80405;BME280;69733;48.744;9.176;2023-07-30T01:36:28;96415.13;;;17.34;83.61
80405;BME280;69733;48.744;9.176;2023-07-30T01:38:56;96424.00;;;17.34;83.60
80405;BME280;69733;48.744;9.176;2023-07-30T01:41:22;96432.34;;;17.33;83.74
80405;BME280;69733;48.744;9.176;2023-07-30T01:43:52;96429.13;;;17.31;83.80
80405;BME280;69733;48.744;9.176;2023-07-30T01:46:23;96431.28;;;17.29;83.79
80405;BME280;69733;48.744;9.176;2023-07-30T01:48:48;96434.28;;;17.27;83.99
80405;BME280;69733;48.744;9.176;2023-07-30T01:51:13;96434.53;;;17.26;84.27
80405;BME280;69733;48.744;9.176;2023-07-30T01:53:39;96440.78;;;17.21;84.35
80405;BME280;69733;48.744;9.176;2023-07-30T01:56:04;96439.16;;;17.20;84.40
80405;BME280;69733;48.744;9.176;2023-07-30T01:58:32;96431.66;;;17.17;84.62
80405;BME280;69733;48.744;9.176;2023-07-30T02:00:58;96435.97;;;17.13;84.58
80405;BME280;69733;48.744;9.176;2023-07-30T02:03:23;96432.25;;;17.09;84.92
80405;BME280;69733;48.744;9.176;2023-07-30T02:05:48;96438.19;;;17.06;84.99
80405;BME280;69733;48.744;9.176;2023-07-30T02:08:13;96445.44;;;17.06;85.04
80405;BME280;69733;48.744;9.176;2023-07-30T02:10:41;96444.38;;;17.07;84.79
80405;BME280;69733;48.744;9.176;2023-07-30T02:13:06;96440.56;;;17.08;84.87
80405;BME280;69733;48.744;9.176;2023-07-30T02:15:32;96441.38;;;17.08;84.94
80405;BME280;69733;48.744;9.176;2023-07-30T02:17:57;96438.69;;;17.08;84.98
80405;BME280;69733;48.744;9.176;2023-07-30T02:20:25;96432.25;;;17.09;84.78
80405;BME280;69733;48.744;9.176;2023-07-30T02:22:51;96422.28;;;17.10;84.96
80405;BME280;69733;48.744;9.176;2023-07-30T02:25:16;96430.63;;;17.08;85.12
80405;BME280;69733;48.744;9.176;2023-07-30T02:27:41;96424.19;;;17.09;84.93
80405;BME280;69733;48.744;9.176;2023-07-30T02:30:07;96434.13;;;17.09;85.01
80405;BME280;69733;48.744;9.176;2023-07-30T02:32:32;96436.56;;;17.05;85.30
80405;BME280;69733;48.744;9.176;2023-07-30T02:34:57;96446.81;;;17.03;85.36
80405;BME280;69733;48.744;9.176;2023-07-30T02:37:23;96447.88;;;17.02;85.40
80405;BME280;69733;48.744;9.176;2023-07-30T02:39:48;96448.69;;;17.03;85.50
80405;BME280;69733;48.744;9.176;2023-07-30T02:42:16;96450.28;;;17.04;85.27
80405;BME280;69733;48.744;9.176;2023-07-30T02:44:42;96447.59;;;17.04;85.33
80405;BME280;69733;48.744;9.176;2023-07-30T02:47:07;96450.00;;;17.05;85.32
80405;BME280;69733;48.744;9.176;2023-07-30T02:49:32;96447.31;;;17.05;85.79
80405;BME280;69733;48.744;9.176;2023-07-30T02:51:58;96446.81;;;17.03;85.71
80405;BME280;69733;48.744;9.176;2023-07-30T02:54:23;96449.25;;;17.00;85.96
80405;BME280;69733;48.744;9.176;2023-07-30T02:56:48;96442.50;;;16.97;86.26
80405;BME280;69733;48.744;9.176;2023-07-30T02:59:13;96442.25;;;16.93;86.03
80405;BME280;69733;48.744;9.176;2023-07-30T03:01:39;96439.63;;;16.88;86.53
80405;BME280;69733;48.744;9.176;2023-07-30T03:04:04;96445.81;;;16.84;86.32
80405;BME280;69733;48.744;9.176;2023-07-30T03:06:29;96444.75;;;16.80;86.63
80405;BME280;69733;48.744;9.176;2023-07-30T03:09:01;96446.38;;;16.76;86.74
80405;BME280;69733;48.744;9.176;2023-07-30T03:11:26;96447.50;;;16.70;87.08
80405;BME280;69733;48.744;9.176;2023-07-30T03:13:51;96451.28;;;16.64;86.93
80405;BME280;69733;48.744;9.176;2023-07-30T03:16:20;96453.44;;;16.62;87.14
80405;BME280;69733;48.744;9.176;2023-07-30T03:18:48;96450.47;;;16.63;86.88
80405;BME280;69733;48.744;9.176;2023-07-30T03:21:13;96446.97;;;16.63;86.75
80405;BME280;69733;48.744;9.176;2023-07-30T03:23:38;96452.09;;;16.64;86.75
80405;BME280;69733;48.744;9.176;2023-07-30T03:26:06;96448.31;;;16.65;86.81
80405;BME280;69733;48.744;9.176;2023-07-30T03:28:31;96444.31;;;16.63;86.75
80405;BME280;69733;48.744;9.176;2023-07-30T03:30:59;96447.53;;;16.60;87.18
80405;BME280;69733;48.744;9.176;2023-07-30T03:33:24;96445.13;;;16.58;86.84
80405;BME280;69733;48.744;9.176;2023-07-30T03:35:50;96445.41;;;16.57;87.30
80405;BME280;69733;48.744;9.176;2023-07-30T03:38:15;96455.34;;;16.56;87.10
80405;BME280;69733;48.744;9.176;2023-07-30T03:40:40;96449.72;;;16.58;87.09
80405;BME280;69733;48.744;9.176;2023-07-30T03:43:05;96444.03;;;16.59;87.00
80405;BME280;69733;48.744;9.176;2023-07-30T03:45:31;96452.66;;;16.61;87.03
80405;BME280;69733;48.744;9.176;2023-07-30T03:47:56;96460.41;;;16.63;87.04
80405;BME280;69733;48.744;9.176;2023-07-30T03:50:22;96462.03;;;16.64;86.86
80405;BME280;69733;48.744;9.176;2023-07-30T03:52:47;96469.81;;;16.65;86.95
80405;BME280;69733;48.744;9.176;2023-07-30T03:55:12;96467.38;;;16.69;86.81
80405;BME280;69733;48.744;9.176;2023-07-30T03:57:38;96472.47;;;16.70;86.95
80405;BME280;69733;48.744;9.176;2023-07-30T04:00:04;96470.31;;;16.72;86.85
80405;BME280;69733;48.744;9.176;2023-07-30T04:02:30;96468.97;;;16.75;87.20
80405;BME280;69733;48.744;9.176;2023-07-30T04:04:55;96466.53;;;16.78;86.92
80405;BME280;69733;48.744;9.176;2023-07-30T04:07:20;96465.19;;;16.81;86.88
80405;BME280;69733;48.744;9.176;2023-07-30T04:09:46;96477.00;;;16.85;86.77
80405;BME280;69733;48.744;9.176;2023-07-30T04:12:11;96470.81;;;16.89;86.60
80405;BME280;69733;48.744;9.176;2023-07-30T04:14:37;96465.94;;;16.91;86.57
80405;BME280;69733;48.744;9.176;2023-07-30T04:17:02;96478.00;;;16.94;86.93
80405;BME280;69733;48.744;9.176;2023-07-30T04:19:27;96484.50;;;16.93;86.81
80405;BME280;69733;48.744;9.176;2023-07-30T04:21:56;96481.25;;;16.96;86.92
80405;BME280;69733;48.744;9.176;2023-07-30T04:24:24;96478.56;;;16.96;87.02
80405;BME280;69733;48.744;9.176;2023-07-30T04:26:51;96496.56;;;16.96;87.15
80405;BME280;69733;48.744;9.176;2023-07-30T04:29:16;96497.63;;;16.95;87.13
80405;BME280;69733;48.744;9.176;2023-07-30T04:31:41;96508.38;;;16.95;87.32
80405;BME280;69733;48.744;9.176;2023-07-30T04:34:07;96515.38;;;16.96;87.39
80405;BME280;69733;48.744;9.176;2023-07-30T04:36:32;96512.41;;;16.97;87.32
80405;BME280;69733;48.744;9.176;2023-07-30T04:38:57;96517.00;;;16.97;87.45
80405;BME280;69733;48.744;9.176;2023-07-30T04:41:23;96508.94;;;16.97;87.38
80405;BME280;69733;48.744;9.176;2023-07-30T04:43:48;96505.94;;;16.98;87.54
80405;BME280;69733;48.744;9.176;2023-07-30T04:46:13;96496.81;;;16.99;87.33
80405;BME280;69733;48.744;9.176;2023-07-30T04:48:40;96498.44;;;17.00;87.59
80405;BME280;69733;48.744;9.176;2023-07-30T04:51:06;96501.13;;;17.00;87.66
80405;BME280;69733;48.744;9.176;2023-07-30T04:53:31;96506.22;;;17.02;87.63
80405;BME280;69733;48.744;9.176;2023-07-30T04:56:02;96513.19;;;17.03;87.46
80405;BME280;69733;48.744;9.176;2023-07-30T04:58:28;96515.09;;;17.02;87.79
80405;BME280;69733;48.744;9.176;2023-07-30T05:00:53;96508.63;;;17.03;87.84
80405;BME280;69733;48.744;9.176;2023-07-30T05:03:18;96505.09;;;17.08;87.62
80405;BME280;69733;48.744;9.176;2023-07-30T05:05:46;96500.22;;;17.15;87.53
80405;BME280;69733;48.744;9.176;2023-07-30T05:08:12;96509.06;;;17.20;87.24
80405;BME280;69733;48.744;9.176;2023-07-30T05:10:37;96507.16;;;17.26;87.27
80405;BME280;69733;48.744;9.176;2023-07-30T05:13:02;96524.09;;;17.26;87.29
80405;BME280;69733;48.744;9.176;2023-07-30T05:15:28;96524.09;;;17.26;87.72
80405;BME280;69733;48.744;9.176;2023-07-30T05:17:53;96525.16;;;17.25;87.60
80405;BME280;69733;48.744;9.176;2023-07-30T05:20:18;96524.38;;;17.25;87.76
80405;BME280;69733;48.744;9.176;2023-07-30T05:22:43;96534.84;;;17.26;87.79
80405;BME280;69733;48.744;9.176;2023-07-30T05:25:09;96527.84;;;17.25;87.80
80405;BME280;69733;48.744;9.176;2023-07-30T05:27:37;96527.59;;;17.27;87.97
80405;BME280;69733;48.744;9.176;2023-07-30T05:30:03;96527.34;;;17.28;88.12
80405;BME280;69733;48.744;9.176;2023-07-30T05:32:28;96522.97;;;17.32;87.83
80405;BME280;69733;48.744;9.176;2023-07-30T05:34:54;96523.47;;;17.39;87.47
80405;BME280;69733;48.744;9.176;2023-07-30T05:37:19;96522.91;;;17.48;87.33
80405;BME280;69733;48.744;9.176;2023-07-30T05:39:44;96531.47;;;17.55;87.20
80405;BME280;69733;48.744;9.176;2023-07-30T05:42:10;96525.78;;;17.61;87.14
80405;BME280;69733;48.744;9.176;2023-07-30T05:44:35;96534.09;;;17.70;87.07
80405;BME280;69733;48.744;9.176;2023-07-30T05:47:00;96523.00;;;17.76;86.81
80405;BME280;69733;48.744;9.176;2023-07-30T05:49:26;96532.66;;;17.82;86.93
80405;BME280;69733;48.744;9.176;2023-07-30T05:51:51;96534.53;;;17.82;86.98
80405;BME280;69733;48.744;9.176;2023-07-30T05:54:17;96538.88;;;17.78;87.53
80405;BME280;69733;48.744;9.176;2023-07-30T05:56:42;96535.09;;;17.79;87.39
80405;BME280;69733;48.744;9.176;2023-07-30T05:59:07;96529.13;;;17.87;87.37
80405;BME280;69733;48.744;9.176;2023-07-30T06:01:32;96531.94;;;18.06;86.85
80405;BME280;69733;48.744;9.176;2023-07-30T06:03:58;96520.47;;;18.24;86.20
80405;BME280;69733;48.744;9.176;2023-07-30T06:06:23;96520.00;;;18.46;85.58
80405;BME280;69733;48.744;9.176;2023-07-30T06:08:53;96512.97;;;18.73;85.00
80405;BME280;69733;48.744;9.176;2023-07-30T06:11:19;96521.31;;;18.96;84.56
80405;BME280;69733;48.744;9.176;2023-07-30T06:13:44;96513.13;;;19.06;84.85
80405;BME280;69733;48.744;9.176;2023-07-30T06:16:10;96524.38;;;19.13;84.58
80405;BME280;69733;48.744;9.176;2023-07-30T06:18:35;96528.16;;;19.12;85.16
80405;BME280;69733;48.744;9.176;2023-07-30T06:21:03;96531.66;;;19.12;85.30
80405;BME280;69733;48.744;9.176;2023-07-30T06:23:28;96538.63;;;19.13;85.47
80405;BME280;69733;48.744;9.176;2023-07-30T06:25:54;96532.25;;;19.09;85.75
80405;BME280;69733;48.744;9.176;2023-07-30T06:28:19;96523.78;;;19.16;85.73
80405;BME280;69733;48.744;9.176;2023-07-30T06:30:44;96523.28;;;19.32;85.55
80405;BME280;69733;48.744;9.176;2023-07-30T06:33:10;96522.59;;;19.46;85.29
80405;BME280;69733;48.744;9.176;2023-07-30T06:35:35;96519.03;;;19.69;84.97
80405;BME280;69733;48.744;9.176;2023-07-30T06:38:00;96528.44;;;19.90;84.36
80405;BME280;69733;48.744;9.176;2023-07-30T06:40:25;96538.34;;;20.46;82.87
80405;BME280;69733;48.744;9.176;2023-07-30T06:42:51;96548.78;;;20.66;82.91
80405;BME280;69733;48.744;9.176;2023-07-30T06:45:16;96557.53;;;20.90;82.46
80405;BME280;69733;48.744;9.176;2023-07-30T06:47:42;96556.13;;;21.06;82.49
80405;BME280;69733;48.744;9.176;2023-07-30T06:50:07;96552.03;;;21.22;82.60
80405;BME280;69733;48.744;9.176;2023-07-30T06:52:36;96558.75;;;21.39;82.31
80405;BME280;69733;48.744;9.176;2023-07-30T06:55:02;96549.31;;;21.50;82.31
80405;BME280;69733;48.744;9.176;2023-07-30T06:57:29;96555.00;;;21.48;82.88
80405;BME280;69733;48.744;9.176;2023-07-30T06:59:54;96560.66;;;21.38;83.44
80405;BME280;69733;48.744;9.176;2023-07-30T07:02:19;96555.03;;;21.07;84.82
80405;BME280;69733;48.744;9.176;2023-07-30T07:04:45;96561.53;;;20.79;85.83
80405;BME280;69733;48.744;9.176;2023-07-30T07:07:10;96554.16;;;20.52;86.91
80405;BME280;69733;48.744;9.176;2023-07-30T07:09:35;96559.31;;;20.35;87.33
80405;BME280;69733;48.744;9.176;2023-07-30T07:12:01;96570.06;;;20.21;87.95
80405;BME280;69733;48.744;9.176;2023-07-30T07:14:26;96572.63;;;20.13;88.22
80405;BME280;69733;48.744;9.176;2023-07-30T07:16:53;96573.75;;;20.12;88.30
80405;BME280;69733;48.744;9.176;2023-07-30T07:19:20;96572.94;;;20.11;88.23
80405;BME280;69733;48.744;9.176;2023-07-30T07:21:45;96581.53;;;20.13;88.24
80405;BME280;69733;48.744;9.176;2023-07-30T07:24:10;96585.84;;;20.14;88.08
80405;BME280;69733;48.744;9.176;2023-07-30T07:26:36;96587.97;;;20.17;88.16
80405;BME280;69733;48.744;9.176;2023-07-30T07:29:01;96590.06;;;20.20;87.72
80405;BME280;69733;48.744;9.176;2023-07-30T07:31:26;96596.50;;;20.24;87.49
80405;BME280;69733;48.744;9.176;2023-07-30T07:33:52;96605.09;;;20.26;87.48
80405;BME280;69733;48.744;9.176;2023-07-30T07:36:17;96608.91;;;20.25;87.70
80405;BME280;69733;48.744;9.176;2023-07-30T07:38:43;96618.88;;;20.11;88.25
80405;BME280;69733;48.744;9.176;2023-07-30T07:41:14;96604.66;;;19.87;89.43
80405;BME280;69733;48.744;9.176;2023-07-30T07:43:43;96594.47;;;19.60;90.80
80405;BME280;69733;48.744;9.176;2023-07-30T07:46:09;96603.50;;;19.51;91.17
80405;BME280;69733;48.744;9.176;2023-07-30T07:48:42;96605.19;;;19.47;91.24
80405;BME280;69733;48.744;9.176;2023-07-30T07:51:11;96622.41;;;19.51;90.75
80405;BME280;69733;48.744;9.176;2023-07-30T07:53:37;96620.66;;;19.60;90.26
80405;BME280;69733;48.744;9.176;2023-07-30T07:56:02;96617.25;;;19.73;89.41
80405;BME280;69733;48.744;9.176;2023-07-30T07:58:31;96618.59;;;19.94;88.80
80405;BME280;69733;48.744;9.176;2023-07-30T08:00:58;96599.56;;;20.18;87.98
80405;BME280;69733;48.744;9.176;2023-07-30T08:03:23;96601.09;;;20.43;86.88
80405;BME280;69733;48.744;9.176;2023-07-30T08:05:51;96609.94;;;20.62;86.44
80405;BME280;69733;48.744;9.176;2023-07-30T08:08:17;96596.28;;;20.72;86.00
80405;BME280;69733;48.744;9.176;2023-07-30T08:10:42;96609.00;;;20.85;85.84
80405;BME280;69733;48.744;9.176;2023-07-30T08:13:10;96609.22;;;21.02;85.57
80405;BME280;69733;48.744;9.176;2023-07-30T08:15:35;96599.66;;;21.23;84.92
80405;BME280;69733;48.744;9.176;2023-07-30T08:18:01;96610.19;;;21.39;84.46
80405;BME280;69733;48.744;9.176;2023-07-30T08:20:26;96609.28;;;21.57;84.43
80405;BME280;69733;48.744;9.176;2023-07-30T08:22:51;96610.84;;;21.58;84.33
80405;BME280;69733;48.744;9.176;2023-07-30T08:25:17;96605.13;;;21.73;84.87
80405;BME280;69733;48.744;9.176;2023-07-30T08:27:42;96608.88;;;22.13;83.11
80405;BME280;69733;48.744;9.176;2023-07-30T08:30:08;96604.56;;;22.56;81.88
80405;BME280;69733;48.744;9.176;2023-07-30T08:32:33;96603.75;;;23.09;80.67
80405;BME280;69733;48.744;9.176;2023-07-30T08:34:58;96598.53;;;23.77;78.81
80405;BME280;69733;48.744;9.176;2023-07-30T08:37:24;96600.34;;;24.08;78.75
80405;BME280;69733;48.744;9.176;2023-07-30T08:39:49;96600.81;;;24.10;79.52
80405;BME280;69733;48.744;9.176;2023-07-30T08:42:15;96598.13;;;24.27;79.39
80405;BME280;69733;48.744;9.176;2023-07-30T08:44:40;96591.53;;;24.45;79.15
80405;BME280;69733;48.744;9.176;2023-07-30T08:47:05;96588.47;;;24.55;79.02
80405;BME280;69733;48.744;9.176;2023-07-30T08:49:31;96590.75;;;24.45;79.60
80405;BME280;69733;48.744;9.176;2023-07-30T08:51:59;96586.78;;;24.34;80.57
80405;BME280;69733;48.744;9.176;2023-07-30T08:54:27;96597.97;;;24.41;80.31
80405;BME280;69733;48.744;9.176;2023-07-30T08:56:54;96601.13;;;24.86;78.84
80405;BME280;69733;48.744;9.176;2023-07-30T08:59:21;96605.47;;;25.24;77.94
80405;BME280;69733;48.744;9.176;2023-07-30T09:01:50;96600.81;;;25.25;78.29
80405;BME280;69733;48.744;9.176;2023-07-30T09:04:17;96604.81;;;25.27;78.65
80405;BME280;69733;48.744;9.176;2023-07-30T09:06:43;96603.13;;;25.44;78.44
80405;BME280;69733;48.744;9.176;2023-07-30T09:09:11;96613.88;;;25.40;78.39
80405;BME280;69733;48.744;9.176;2023-07-30T09:11:38;96602.25;;;25.90;77.15
80405;BME280;69733;48.744;9.176;2023-07-30T09:14:05;96607.59;;;26.81;74.73
80405;BME280;69733;48.744;9.176;2023-07-30T09:16:31;96611.50;;;27.49;72.93
80405;BME280;69733;48.744;9.176;2023-07-30T09:18:56;96613.19;;;27.30;74.29
80405;BME280;69733;48.744;9.176;2023-07-30T09:21:30;96622.66;;;26.87;75.95
80405;BME280;69733;48.744;9.176;2023-07-30T09:23:56;96616.06;;;26.35;77.78
80405;BME280;69733;48.744;9.176;2023-07-30T09:26:21;96623.59;;;25.88;78.99
80405;BME280;69733;48.744;9.176;2023-07-30T09:28:50;96626.53;;;25.45;79.92
80405;BME280;69733;48.744;9.176;2023-07-30T09:31:49;96623.00;;;24.98;80.82
80405;BME280;69733;48.744;9.176;2023-07-30T09:34:20;96629.16;;;24.69;80.92
80405;BME280;69733;48.744;9.176;2023-07-30T09:36:45;96629.66;;;24.37;81.30
80405;BME280;69733;48.744;9.176;2023-07-30T09:41:46;96637.72;;;23.85;82.02
80405;BME280;69733;48.744;9.176;2023-07-30T09:44:12;96635.94;;;23.72;81.03
80405;BME280;69733;48.744;9.176;2023-07-30T09:46:45;96644.31;;;23.84;79.86
80405;BME280;69733;48.744;9.176;2023-07-30T09:49:11;96641.72;;;23.79;79.48
80405;BME280;69733;48.744;9.176;2023-07-30T09:51:40;96645.66;;;23.56;78.80
80405;BME280;69733;48.744;9.176;2023-07-30T09:54:07;96635.81;;;23.38;79.00
80405;BME280;69733;48.744;9.176;2023-07-30T09:56:34;96631.50;;;23.37;78.26
80405;BME280;69733;48.744;9.176;2023-07-30T09:59:00;96644.53;;;23.57;76.59
80405;BME280;69733;48.744;9.176;2023-07-30T10:01:28;96646.84;;;23.89;75.11
80405;BME280;69733;48.744;9.176;2023-07-30T10:03:58;96654.06;;;24.02;74.12
80405;BME280;69733;48.744;9.176;2023-07-30T10:06:29;96645.47;;;24.09;73.61
80405;BME280;69733;48.744;9.176;2023-07-30T10:08:57;96651.41;;;24.19;72.71
80405;BME280;69733;48.744;9.176;2023-07-30T10:14:17;96653.47;;;24.48;71.46
80405;BME280;69733;48.744;9.176;2023-07-30T10:16:54;96658.91;;;24.91;69.87
80405;BME280;69733;48.744;9.176;2023-07-30T10:19:25;96661.44;;;25.05;69.22
80405;BME280;69733;48.744;9.176;2023-07-30T10:21:53;96654.53;;;25.62;67.49
80405;BME280;69733;48.744;9.176;2023-07-30T10:24:18;96651.34;;;25.90;66.71
80405;BME280;69733;48.744;9.176;2023-07-30T10:26:44;96663.69;;;25.87;66.53
80405;BME280;69733;48.744;9.176;2023-07-30T10:31:42;96652.50;;;25.42;66.59
80405;BME280;69733;48.744;9.176;2023-07-30T10:34:09;96659.06;;;25.50;65.55
80405;BME280;69733;48.744;9.176;2023-07-30T10:37:01;96658.53;;;26.15;64.00
80405;BME280;69733;48.744;9.176;2023-07-30T10:39:27;96653.91;;;26.36;62.86
80405;BME280;69733;48.744;9.176;2023-07-30T10:41:57;96644.84;;;26.65;61.94
80405;BME280;69733;48.744;9.176;2023-07-30T10:44:24;96647.81;;;26.72;61.60
80405;BME280;69733;48.744;9.176;2023-07-30T10:46:55;96650.38;;;26.77;60.98
80405;BME280;69733;48.744;9.176;2023-07-30T10:49:20;96650.38;;;26.77;60.56
80405;BME280;69733;48.744;9.176;2023-07-30T10:51:46;96649.34;;;26.49;60.08
80405;BME280;69733;48.744;9.176;2023-07-30T10:54:11;96650.91;;;26.29;60.17
80405;BME280;69733;48.744;9.176;2023-07-30T10:56:37;96653.81;;;26.03;60.09
80405;BME280;69733;48.744;9.176;2023-07-30T10:59:04;96651.75;;;25.71;60.01
80405;BME280;69733;48.744;9.176;2023-07-30T11:01:31;96665.13;;;25.55;59.49
80405;BME280;69733;48.744;9.176;2023-07-30T11:03:56;96667.44;;;25.36;59.13
80405;BME280;69733;48.744;9.176;2023-07-30T11:06:26;96668.78;;;25.21;58.59
80405;BME280;69733;48.744;9.176;2023-07-30T11:08:52;96656.72;;;25.22;58.39
80405;BME280;69733;48.744;9.176;2023-07-30T11:11:18;96667.31;;;25.15;57.84
80405;BME280;69733;48.744;9.176;2023-07-30T11:13:45;96672.47;;;25.17;56.96
80405;BME280;69733;48.744;9.176;2023-07-30T11:16:12;96664.00;;;25.01;56.68
80405;BME280;69733;48.744;9.176;2023-07-30T11:18:39;96668.38;;;24.94;56.53
80405;BME280;69733;48.744;9.176;2023-07-30T11:21:05;96674.28;;;24.87;56.07
80405;BME280;69733;48.744;9.176;2023-07-30T11:23:30;96666.75;;;24.67;56.05
80405;BME280;69733;48.744;9.176;2023-07-30T11:25:56;96671.75;;;24.48;55.80
80405;BME280;69733;48.744;9.176;2023-07-30T11:28:35;96682.75;;;24.17;55.85
80405;BME280;69733;48.744;9.176;2023-07-30T11:33:35;96684.94;;;24.06;54.90
80405;BME280;69733;48.744;9.176;2023-07-30T11:36:02;96679.50;;;24.06;54.88
80405;BME280;69733;48.744;9.176;2023-07-30T11:38:31;96680.31;;;24.07;54.89
80405;BME280;69733;48.744;9.176;2023-07-30T11:40:57;96674.69;;;24.03;54.76
80405;BME280;69733;48.744;9.176;2023-07-30T11:43:23;96681.53;;;23.84;54.70
80405;BME280;69733;48.744;9.176;2023-07-30T11:46:09;96679.44;;;23.72;54.93
80405;BME280;69733;48.744;9.176;2023-07-30T11:48:34;96677.94;;;23.57;54.78
80405;BME280;69733;48.744;9.176;2023-07-30T11:51:00;96681.81;;;23.34;55.32
80405;BME280;69733;48.744;9.176;2023-07-30T11:56:28;96692.00;;;22.98;55.19
80405;BME280;69733;48.744;9.176;2023-07-30T11:59:12;96695.16;;;22.91;54.79
80405;BME280;69733;48.744;9.176;2023-07-30T12:01:37;96706.28;;;22.90;55.34
80405;BME280;69733;48.744;9.176;2023-07-30T12:04:04;96706.63;;;22.88;55.38
80405;BME280;69733;48.744;9.176;2023-07-30T12:06:44;96707.00;;;22.95;54.63
80405;BME280;69733;48.744;9.176;2023-07-30T12:09:17;96704.75;;;23.19;54.53
80405;BME280;69733;48.744;9.176;2023-07-30T12:14:22;96706.72;;;23.05;55.01
80405;BME280;69733;48.744;9.176;2023-07-30T12:16:50;96699.94;;;23.16;54.90
80405;BME280;69733;48.744;9.176;2023-07-30T12:19:16;96703.03;;;23.32;54.55
80405;BME280;69733;48.744;9.176;2023-07-30T12:21:41;96694.72;;;23.28;54.64
80405;BME280;69733;48.744;9.176;2023-07-30T12:24:06;96691.47;;;23.18;55.39
80405;BME280;69733;48.744;9.176;2023-07-30T12:26:32;96681.34;;;23.10;55.16
80405;BME280;69733;48.744;9.176;2023-07-30T12:28:57;96684.50;;;23.03;55.46
80405;BME280;69733;48.744;9.176;2023-07-30T12:31:22;96680.22;;;23.02;54.79
80405;BME280;69733;48.744;9.176;2023-07-30T12:33:48;96684.31;;;23.00;54.75
80405;BME280;69733;48.744;9.176;2023-07-30T12:36:13;96697.59;;;23.01;54.97
80405;BME280;69733;48.744;9.176;2023-07-30T12:38:39;96697.28;;;23.03;54.86
80405;BME280;69733;48.744;9.176;2023-07-30T12:41:04;96698.78;;;23.09;55.01
80405;BME280;69733;48.744;9.176;2023-07-30T12:43:29;96704.84;;;23.14;54.67
80405;BME280;69733;48.744;9.176;2023-07-30T12:45:55;96705.44;;;23.34;54.00
80405;BME280;69733;48.744;9.176;2023-07-30T12:48:20;96711.44;;;23.44;53.49
80405;BME280;69733;48.744;9.176;2023-07-30T12:50:45;96710.88;;;23.56;53.57
80405;BME280;69733;48.744;9.176;2023-07-30T12:53:11;96701.63;;;23.65;53.32
80405;BME280;69733;48.744;9.176;2023-07-30T12:55:36;96705.50;;;23.82;52.75
80405;BME280;69733;48.744;9.176;2023-07-30T12:58:03;96720.56;;;23.88;52.83
80405;BME280;69733;48.744;9.176;2023-07-30T13:02:53;96722.84;;;23.63;52.65
80405;BME280;69733;48.744;9.176;2023-07-30T13:05:21;96722.22;;;23.58;52.32
80405;BME280;69733;48.744;9.176;2023-07-30T13:07:46;96719.03;;;23.64;52.44
80405;BME280;69733;48.744;9.176;2023-07-30T13:10:12;96717.13;;;23.65;52.08
80405;BME280;69733;48.744;9.176;2023-07-30T13:12:37;96722.22;;;23.58;52.31
80405;BME280;69733;48.744;9.176;2023-07-30T13:15:03;96719.78;;;23.48;52.14